Ever United — 9V7957 — position and weather

sailwx.info

Track history (hours):
 
Tides and Currents Weather Stations Pressure Air Temp Water Temp Dewpoint Dewpoint Depression Visibility Wind Speed Wind Dir Waves Ship Positions

Ever United

Last reported at 2018-Feb-20 19:29 UTC. Time now 2018-Feb-20 19:55 UTC.
Position N 34°39' E 135°24'.

; draft 11.5 m.

Type: Ship (hazmat cat D). MMSI: 563400000.

Date/timePositionNaut miles runAvg speedWind from/ knotsBaromVisibWave heightAir tempDewpointWater temp
2018-Feb-20 19:29N 34°39' E 135°24'0 0.0
2018-Feb-20 18:59N 34°39' E 135°24'0 0.0
2018-Feb-20 18:29N 34°39' E 135°24'0 0.0
2018-Feb-20 17:59N 34°39' E 135°24'0 0.0
2018-Feb-20 17:29N 34°39' E 135°24'0 0.0
2018-Feb-20 16:59N 34°39' E 135°24'0 0.0
2018-Feb-20 16:29N 34°39' E 135°24'0 0.0
2018-Feb-20 15:59N 34°39' E 135°24'0 0.0
2018-Feb-20 15:29N 34°39' E 135°24'0 0.0
2018-Feb-20 14:59N 34°39' E 135°24'0 0.0
2018-Feb-20 14:29N 34°39' E 135°24'0 0.0
2018-Feb-20 13:59N 34°39' E 135°24'0 0.0
2018-Feb-20 13:29N 34°39' E 135°24'0 0.0
2018-Feb-20 12:59N 34°39' E 135°24'0 0.0
2018-Feb-20 12:29N 34°39' E 135°24'0 0.3
2018-Feb-20 12:00N 34°39' E 135°24'4 8.0
2018-Feb-20 11:30N 34°36' E 135°20'714.2
2018-Feb-20 11:01N 34°31' E 135°15'917.2
2018-Feb-20 10:30N 34°25' E 135°07'816.4
2018-Feb-20 10:01N 34°19' E 135°01'713.8
2018-Feb-20 09:30N 34°12' E 134°59'612.0
2018-Feb-20 09:00N 34°06' E 134°60'714.1
2018-Feb-20 08:30N 33°59' E 135°00'612.9
2018-Feb-20 08:01N 33°52' E 134°60'713.6
2018-Feb-20 07:30N 33°46' E 135°01'5 9.9
2018-Feb-20 06:57N 33°40' E 135°01'2 1.5
2018-Feb-20 05:28N 33°42' E 135°01'1 1.6
2018-Feb-20 04:58N 33°43' E 135°00'1 1.4
2018-Feb-20 04:30N 33°44' E 135°00'4 8.0
2018-Feb-20 04:00N 33°41' E 135°03'815.4
2018-Feb-20 03:28N 33°34' E 135°10'716.1
2018-Feb-20 03:00N 33°29' E 135°16'815.9
2018-Feb-20 02:30N 33°27' E 135°25'15117.1
2018-Feb-19 17:44N 34°14' E 138°18'516.1
2018-Feb-19 17:25N 34°15' E 138°23'2015.7
2018-Feb-19 16:09N 34°24' E 138°45'415.4
2018-Feb-19 15:55N 34°26' E 138°49'615.4
2018-Feb-19 15:30N 34°28' E 138°56'815.5
2018-Feb-19 15:01N 34°31' E 139°05'815.9
2018-Feb-19 14:30N 34°34' E 139°14'816.4
2018-Feb-19 14:00N 34°37' E 139°23'1415.0
2018-Feb-19 13:06N 34°47' E 139°34'217.2
2018-Feb-19 13:01N 34°49' E 139°35'917.4
2018-Feb-19 12:31N 34°57' E 139°39'917.0
2018-Feb-19 12:00N 35°04' E 139°43'714.1
2018-Feb-19 11:31N 35°11' E 139°46'510.9
2018-Feb-19 11:01N 35°17' E 139°45'713.3
2018-Feb-19 10:30N 35°23' E 139°42'815.5
2018-Feb-19 10:00N 35°28' E 139°49'611.8
2018-Feb-19 09:30N 35°34' E 139°49'3 6.4
2018-Feb-19 09:00N 35°37' E 139°47'0 0.3
2018-Feb-19 08:23N 35°37' E 139°47'0 0.0
2018-Feb-19 07:59N 35°37' E 139°47'0 0.0
2018-Feb-19 07:26N 35°37' E 139°47'0 0.0
2018-Feb-19 06:59N 35°37' E 139°47'0 0.0
2018-Feb-19 06:29N 35°37' E 139°47'0 0.0
2018-Feb-19 05:53N 35°37' E 139°47'0 0.0
2018-Feb-19 05:29N 35°37' E 139°47'0 0.0
2018-Feb-19 04:56N 35°37' E 139°47'0 0.0
2018-Feb-19 04:26N 35°37' E 139°47'0 0.0
2018-Feb-19 03:56N 35°37' E 139°47'0 0.0
2018-Feb-19 03:23N 35°37' E 139°47'0 0.0
2018-Feb-19 02:59N 35°37' E 139°47'0 0.0
2018-Feb-19 02:29N 35°37' E 139°47'0 0.0
2018-Feb-19 01:59N 35°37' E 139°47'0 0.0
2018-Feb-19 01:29N 35°37' E 139°47'0 0.0
2018-Feb-19 00:56N 35°37' E 139°47'0 0.0
2018-Feb-19 00:29N 35°37' E 139°47'0 0.1
2018-Feb-18 23:59N 35°37' E 139°47'0 0.1
2018-Feb-18 23:23N 35°37' E 139°47'0 0.0
2018-Feb-18 22:59N 35°37' E 139°47'0 0.0
2018-Feb-18 22:23N 35°37' E 139°47'0 0.0
2018-Feb-18 21:59N 35°37' E 139°47'0 0.0
2018-Feb-18 21:20N 35°37' E 139°47'0 0.0
2018-Feb-18 20:56N 35°37' E 139°47'0 0.0
2018-Feb-18 20:29N 35°37' E 139°47'0 0.0
2018-Feb-18 19:59N 35°37' E 139°47'0 0.0
2018-Feb-18 19:29N 35°37' E 139°47'0 0.0
2018-Feb-18 18:59N 35°37' E 139°47'0 0.0
2018-Feb-18 18:29N 35°37' E 139°47'0 0.0
2018-Feb-18 17:59N 35°37' E 139°47'0 0.0
2018-Feb-18 17:29N 35°37' E 139°47'0 0.0
2018-Feb-18 16:59N 35°37' E 139°47'0 0.0
2018-Feb-18 16:14N 35°37' E 139°47'0 0.0
2018-Feb-18 15:56N 35°37' E 139°47'0 0.0
2018-Feb-18 15:26N 35°37' E 139°47'0 0.0
2018-Feb-18 14:59N 35°37' E 139°47'0 0.0
2018-Feb-18 14:29N 35°37' E 139°47'0 0.0
2018-Feb-18 13:53N 35°37' E 139°47'0 0.0
2018-Feb-18 13:29N 35°37' E 139°47'0 0.0
2018-Feb-18 12:59N 35°37' E 139°47'0 0.0
2018-Feb-18 12:29N 35°37' E 139°47'0 0.0
2018-Feb-18 11:59N 35°37' E 139°47'0 0.0
2018-Feb-18 11:29N 35°37' E 139°47'0 0.0
2018-Feb-18 10:59N 35°37' E 139°47'0 0.0
2018-Feb-18 10:30N 35°37' E 139°47'2 3.7
2018-Feb-18 10:01N 35°35' E 139°48'611.5
2018-Feb-18 09:30N 35°31' E 139°52'713.9
2018-Feb-18 09:00N 35°25' E 139°47'613.0
2018-Feb-18 08:31N 35°19' E 139°44'713.0
2018-Feb-18 08:00N 35°13' E 139°47'510.4
2018-Feb-18 07:30N 35°08' E 139°46'612.2
2018-Feb-18 07:01N 35°02' E 139°43'712.8
2018-Feb-18 06:29N 34°55' E 139°42'2 3.3
2018-Feb-18 06:00N 34°54' E 139°42'0 0.6
2018-Feb-18 05:30N 34°54' E 139°42'0 0.9
2018-Feb-18 05:00N 34°54' E 139°43'2 4.8
2018-Feb-18 04:30N 34°52' E 139°45'713.1
2018-Feb-18 04:00N 34°50' E 139°52'714.4
2018-Feb-18 03:30N 34°50' E 140°01'1813.3
2018-Feb-18 02:09N 34°59' E 140°20'84816.6
2018-Feb-15 23:00N 46°18' E 151°30'34714.5 310 / 32999.0 5.4 -2.0 2.0-1.0
2018-Feb-14 23:00N 47°24' E 159°48'31713.2 260 / 101003.027.0 1.0 1.0 3.0
2018-Feb-13 23:00N 46°48' E 167°30'248 9.9 250 / 281006.010.8 3.0 2.0 4.0
2018-Feb-12 22:00N 49°30' E 172°12'84917.0 220 / 47988.0 5.4 6.0 4.0 5.0
2018-Feb-10 20:00N 54°30' W 166°18'   130 / 21990.0 5.4 8.0 6.0 1.0
Track history (hours):
 
Tides and Currents Weather Stations Pressure Air Temp Water Temp Dewpoint Dewpoint Depression Visibility Wind Speed Wind Dir Waves Ship Positions

Ever United

Last reported at 2018-Feb-20 19:29 UTC. Time now 2018-Feb-20 19:55 UTC.
Position N 34°39' E 135°24'.

; draft 11.5 m.

Type: Ship (hazmat cat D). MMSI: 563400000.

Date/timePositionNaut miles runAvg speedWind from/ knotsBaromVisibWave heightAir tempDewpointWater temp
2018-Feb-20 19:29N 34°39' E 135°24'0 0.0
2018-Feb-20 18:59N 34°39' E 135°24'0 0.0
2018-Feb-20 18:29N 34°39' E 135°24'0 0.0
2018-Feb-20 17:59N 34°39' E 135°24'0 0.0
2018-Feb-20 17:29N 34°39' E 135°24'0 0.0
2018-Feb-20 16:59N 34°39' E 135°24'0 0.0
2018-Feb-20 16:29N 34°39' E 135°24'0 0.0
2018-Feb-20 15:59N 34°39' E 135°24'0 0.0
2018-Feb-20 15:29N 34°39' E 135°24'0 0.0
2018-Feb-20 14:59N 34°39' E 135°24'0 0.0
2018-Feb-20 14:29N 34°39' E 135°24'0 0.0
2018-Feb-20 13:59N 34°39' E 135°24'0 0.0
2018-Feb-20 13:29N 34°39' E 135°24'0 0.0
2018-Feb-20 12:59N 34°39' E 135°24'0 0.0
2018-Feb-20 12:29N 34°39' E 135°24'0 0.3
2018-Feb-20 12:00N 34°39' E 135°24'4 8.0
2018-Feb-20 11:30N 34°36' E 135°20'714.2
2018-Feb-20 11:01N 34°31' E 135°15'917.2
2018-Feb-20 10:30N 34°25' E 135°07'816.4
2018-Feb-20 10:01N 34°19' E 135°01'713.8
2018-Feb-20 09:30N 34°12' E 134°59'612.0
2018-Feb-20 09:00N 34°06' E 134°60'714.1
2018-Feb-20 08:30N 33°59' E 135°00'612.9
2018-Feb-20 08:01N 33°52' E 134°60'713.6
2018-Feb-20 07:30N 33°46' E 135°01'5 9.9
2018-Feb-20 06:57N 33°40' E 135°01'2 1.5
2018-Feb-20 05:28N 33°42' E 135°01'1 1.6
2018-Feb-20 04:58N 33°43' E 135°00'1 1.4
2018-Feb-20 04:30N 33°44' E 135°00'4 8.0
2018-Feb-20 04:00N 33°41' E 135°03'815.4
2018-Feb-20 03:28N 33°34' E 135°10'716.1
2018-Feb-20 03:00N 33°29' E 135°16'815.9
2018-Feb-20 02:30N 33°27' E 135°25'15117.1
2018-Feb-19 17:44N 34°14' E 138°18'516.1
2018-Feb-19 17:25N 34°15' E 138°23'2015.7
2018-Feb-19 16:09N 34°24' E 138°45'415.4
2018-Feb-19 15:55N 34°26' E 138°49'615.4
2018-Feb-19 15:30N 34°28' E 138°56'815.5
2018-Feb-19 15:01N 34°31' E 139°05'815.9
2018-Feb-19 14:30N 34°34' E 139°14'816.4
2018-Feb-19 14:00N 34°37' E 139°23'1415.0
2018-Feb-19 13:06N 34°47' E 139°34'217.2
2018-Feb-19 13:01N 34°49' E 139°35'917.4
2018-Feb-19 12:31N 34°57' E 139°39'917.0
2018-Feb-19 12:00N 35°04' E 139°43'714.1
2018-Feb-19 11:31N 35°11' E 139°46'510.9
2018-Feb-19 11:01N 35°17' E 139°45'713.3
2018-Feb-19 10:30N 35°23' E 139°42'815.5
2018-Feb-19 10:00N 35°28' E 139°49'611.8
2018-Feb-19 09:30N 35°34' E 139°49'3 6.4
2018-Feb-19 09:00N 35°37' E 139°47'0 0.3
2018-Feb-19 08:23N 35°37' E 139°47'0 0.0
2018-Feb-19 07:59N 35°37' E 139°47'0 0.0
2018-Feb-19 07:26N 35°37' E 139°47'0 0.0
2018-Feb-19 06:59N 35°37' E 139°47'0 0.0
2018-Feb-19 06:29N 35°37' E 139°47'0 0.0
2018-Feb-19 05:53N 35°37' E 139°47'0 0.0
2018-Feb-19 05:29N 35°37' E 139°47'0 0.0
2018-Feb-19 04:56N 35°37' E 139°47'0 0.0
2018-Feb-19 04:26N 35°37' E 139°47'0 0.0
2018-Feb-19 03:56N 35°37' E 139°47'0 0.0
2018-Feb-19 03:23N 35°37' E 139°47'0 0.0
2018-Feb-19 02:59N 35°37' E 139°47'0 0.0
2018-Feb-19 02:29N 35°37' E 139°47'0 0.0
2018-Feb-19 01:59N 35°37' E 139°47'0 0.0
2018-Feb-19 01:29N 35°37' E 139°47'0 0.0
2018-Feb-19 00:56N 35°37' E 139°47'0 0.0
2018-Feb-19 00:29N 35°37' E 139°47'0 0.1
2018-Feb-18 23:59N 35°37' E 139°47'0 0.1
2018-Feb-18 23:23N 35°37' E 139°47'0 0.0
2018-Feb-18 22:59N 35°37' E 139°47'0 0.0
2018-Feb-18 22:23N 35°37' E 139°47'0 0.0
2018-Feb-18 21:59N 35°37' E 139°47'0 0.0
2018-Feb-18 21:20N 35°37' E 139°47'0 0.0
2018-Feb-18 20:56N 35°37' E 139°47'0 0.0
2018-Feb-18 20:29N 35°37' E 139°47'0 0.0
2018-Feb-18 19:59N 35°37' E 139°47'0 0.0
2018-Feb-18 19:29N 35°37' E 139°47'0 0.0
2018-Feb-18 18:59N 35°37' E 139°47'0 0.0
2018-Feb-18 18:29N 35°37' E 139°47'0 0.0
2018-Feb-18 17:59N 35°37' E 139°47'0 0.0
2018-Feb-18 17:29N 35°37' E 139°47'0 0.0
2018-Feb-18 16:59N 35°37' E 139°47'0 0.0
2018-Feb-18 16:14N 35°37' E 139°47'0 0.0
2018-Feb-18 15:56N 35°37' E 139°47'0 0.0
2018-Feb-18 15:26N 35°37' E 139°47'0 0.0
2018-Feb-18 14:59N 35°37' E 139°47'0 0.0
2018-Feb-18 14:29N 35°37' E 139°47'0 0.0
2018-Feb-18 13:53N 35°37' E 139°47'0 0.0
2018-Feb-18 13:29N 35°37' E 139°47'0 0.0
2018-Feb-18 12:59N 35°37' E 139°47'0 0.0
2018-Feb-18 12:29N 35°37' E 139°47'0 0.0
2018-Feb-18 11:59N 35°37' E 139°47'0 0.0
2018-Feb-18 11:29N 35°37' E 139°47'0 0.0
2018-Feb-18 10:59N 35°37' E 139°47'0 0.0
2018-Feb-18 10:30N 35°37' E 139°47'2 3.7
2018-Feb-18 10:01N 35°35' E 139°48'611.5
2018-Feb-18 09:30N 35°31' E 139°52'713.9
2018-Feb-18 09:00N 35°25' E 139°47'613.0
2018-Feb-18 08:31N 35°19' E 139°44'713.0
2018-Feb-18 08:00N 35°13' E 139°47'510.4
2018-Feb-18 07:30N 35°08' E 139°46'612.2
2018-Feb-18 07:01N 35°02' E 139°43'712.8
2018-Feb-18 06:29N 34°55' E 139°42'2 3.3
2018-Feb-18 06:00N 34°54' E 139°42'0 0.6
2018-Feb-18 05:30N 34°54' E 139°42'0 0.9
2018-Feb-18 05:00N 34°54' E 139°43'2 4.8
2018-Feb-18 04:30N 34°52' E 139°45'713.1
2018-Feb-18 04:00N 34°50' E 139°52'714.4
2018-Feb-18 03:30N 34°50' E 140°01'1813.3
2018-Feb-18 02:09N 34°59' E 140°20'84816.6
2018-Feb-15 23:00N 46°18' E 151°30'34714.5 310 / 32999.0 5.4 -2.0 2.0-1.0
2018-Feb-14 23:00N 47°24' E 159°48'31713.2 260 / 101003.027.0 1.0 1.0 3.0
2018-Feb-13 23:00N 46°48' E 167°30'248 9.9 250 / 281006.010.8 3.0 2.0 4.0
2018-Feb-12 22:00N 49°30' E 172°12'84917.0 220 / 47988.0 5.4 6.0 4.0 5.0
2018-Feb-10 20:00N 54°30' W 166°18'   130 / 21990.0 5.4 8.0 6.0 1.0

Dump ship's entire track history